Latest Coastal Weather Observations for Cato Island

IDQ60701

Issued at 9:52 pm EST Tuesday 23 July 2024 (issued every 10 minutes, with the page automatically refreshed every 10 minutes)

About coastal observations | Map of coastal stations | Coastal observations for QLD | Marine services | Other Formats
Station Details ID: 200601 Name: CATO ISLAND Lat: -23.25 Lon: 155.54 Height: 6.3 m
Data from the previous 72 hours. | See also: Recent months for locations in Queensland
Date/Time
EST
Wind Sea
Height
m
Swell Vis
km
Cloud Weather Temp
°C
Press
MSL
hPa
Rain since
9am
mm
Dir  Spd
kts
Gust
kts
Height
m
Period
s
Dir
23/09:30pm ESE 19 23 - - - - - - - 21.3 1022.4 -
23/09:00pm ESE 21 23 - - - - - - - 21.5 1022.5 -
23/08:30pm ESE 20 24 - - - - - - - 21.3 1022.5 -
23/08:00pm ESE 19 22 - - - - - - - 21.4 1022.3 -
23/07:30pm ESE 19 22 - - - - - - - 21.4 1022.0 -
23/07:00pm ESE 18 21 - - - - - - - 21.2 1021.9 -
23/06:30pm ESE 20 23 - - - - - - - 21.2 1021.8 -
23/06:00pm ESE 20 23 - - - - - - - 21.2 1021.7 -
23/05:30pm ESE 20 25 - - - - - - - 21.2 1021.5 -
23/05:00pm ESE 20 23 - - - - - - - 21.3 1021.3 -
23/04:30pm ESE 19 23 - - - - - - - 21.2 1021.2 -
23/04:00pm ESE 20 23 - - - - - - - 21.3 1021.1 -
23/03:30pm ESE 19 23 - - - - - - - 21.4 1020.8 -
23/03:00pm ESE 19 21 - - - - - - - 21.3 1020.9 -
23/02:30pm ESE 19 22 - - - - - - - 21.6 1021.1 -
23/02:00pm ESE 19 23 - - - - - - - 21.4 1021.1 -
23/01:30pm ESE 20 23 - - - - - - - 21.5 1021.2 -
23/01:00pm ESE 19 22 - - - - - - - 21.6 1021.5 -
23/12:30pm ESE 19 22 - - - - - - - 21.5 1021.8 -
23/12:00pm ESE 19 23 - - - - - - - 21.7 1022.4 -
23/11:30am ESE 20 22 - - - - - - - 21.6 1023.0 -
23/11:00am ESE 20 23 - - - - - - - 21.4 1023.3 -
23/10:30am ESE 20 24 - - - - - - - 21.3 1023.7 -
23/10:00am ESE 21 25 - - - - - - - 21.3 1023.9 -
23/09:30am ESE 21 25 - - - - - - - 21.4 1024.1 -
23/09:00am ESE 21 25 - - - - - - - 21.3 1024.0 -
23/08:30am ESE 21 25 - - - - - - - 21.3 1023.9 -
23/08:00am ESE 22 25 - - - - - - - 21.4 1023.8 -
23/07:30am ESE 21 25 - - - - - - - 21.3 1023.4 -
23/07:00am ESE 21 26 - - - - - - - 21.0 1023.1 -
23/06:30am ESE 21 25 - - - - - - - 21.0 1022.8 -
23/06:00am ESE 21 27 - - - - - - - 21.1 1022.3 -
23/05:30am ESE 20 24 - - - - - - - 21.0 1022.3 -
23/05:00am ESE 21 25 - - - - - - - 21.0 1021.9 -
23/04:30am ESE 21 24 - - - - - - - 20.9 1021.7 -
23/04:00am ESE 21 25 - - - - - - - 21.0 1021.4 -
23/03:30am ESE 20 23 - - - - - - - 20.7 1021.8 -
23/03:00am ESE 23 26 - - - - - - - 20.0 1021.8 -
23/02:30am ESE 21 25 - - - - - - - 20.8 1021.8 -
23/02:00am ESE 22 25 - - - - - - - 21.0 1022.0 -
23/01:30am ESE 21 23 - - - - - - - 20.8 1022.0 -
23/01:00am ESE 22 24 - - - - - - - 20.6 1022.6 -
23/12:30am ESE 23 28 - - - - - - - 20.3 1022.6 -
23/12:00am ESE 19 23 - - - - - - - 21.0 1022.9 -
 
Date/Time
EST
Wind Sea
Height
m
Swell Vis
km
Cloud Weather Temp
°C
Press
MSL
hPa
Rain since
9am
mm
Dir  Spd
kts
Gust
kts
Height
m
Period
s
Dir
22/11:30pm ESE 19 22 - - - - - - - 20.8 1022.8 -
22/11:00pm ESE 23 27 - - - - - - - 20.8 1023.0 -
22/10:30pm ESE 21 24 - - - - - - - 21.3 1022.9 -
22/10:00pm ESE 17 21 - - - - - - - 21.4 1023.0 -
22/09:30pm E 17 20 - - - - - - - 21.4 1023.1 -
22/09:00pm ESE 18 22 - - - - - - - 21.4 1023.0 -
22/08:30pm E 18 22 - - - - - - - 21.3 1022.9 -
22/08:00pm ESE 15 17 - - - - - - - 21.0 1022.7 -
22/07:30pm ESE 14 17 - - - - - - - 21.0 1022.7 -
22/07:00pm ESE 15 18 - - - - - - - 20.9 1022.5 -
22/06:30pm ESE 14 17 - - - - - - - 21.2 1022.5 -
22/06:00pm E 13 16 - - - - - - - 21.2 1022.1 -
22/05:30pm ESE 16 19 - - - - - - - 21.2 1021.9 -
22/05:00pm E 16 20 - - - - - - - 21.2 1021.6 -
22/04:30pm E 15 18 - - - - - - - 21.0 1021.6 -
22/04:00pm E 15 18 - - - - - - - 21.2 1021.6 -
22/03:30pm ESE 15 19 - - - - - - - 21.2 1021.3 -
22/03:00pm ESE 15 18 - - - - - - - 21.2 1021.3 -
22/02:30pm ESE 17 20 - - - - - - - 21.2 1021.2 -
22/02:00pm E 14 17 - - - - - - - 21.2 1021.4 -
22/01:30pm E 16 19 - - - - - - - 21.1 1021.5 -
22/01:00pm ESE 16 19 - - - - - - - 21.1 1021.6 -
22/12:30pm E 15 19 - - - - - - - 21.0 1022.0 -
22/12:00pm E 16 19 - - - - - - - 21.0 1022.3 -
22/11:30am ESE 16 20 - - - - - - - 21.0 1022.7 -
22/11:00am E 17 21 - - - - - - - 20.8 1023.1 -
22/10:30am E 16 19 - - - - - - - 20.9 1023.4 -
22/10:00am ESE 17 23 - - - - - - - 20.7 1023.3 -
22/09:30am ESE 14 17 - - - - - - - 20.5 1023.5 -
22/09:00am E 17 21 - - - - - - - 20.5 1023.3 -
22/08:30am ESE 18 22 - - - - - - - 20.6 1023.2 -
22/08:00am ESE 16 19 - - - - - - - 20.2 1023.0 -
22/07:30am ESE 18 23 - - - - - - - 20.2 1022.6 -
22/07:00am ESE 17 21 - - - - - - - 20.1 1022.1 -
22/06:30am ESE 17 20 - - - - - - - 20.5 1021.8 -
22/06:00am ESE 17 20 - - - - - - - 20.1 1021.3 -
22/05:30am ESE 17 20 - - - - - - - 20.0 1021.0 -
22/05:00am ESE 17 21 - - - - - - - 20.0 1020.7 -
22/04:30am ESE 16 19 - - - - - - - 20.0 1020.5 -
22/04:00am ESE 17 21 - - - - - - - 19.8 1020.3 -
22/03:30am SE 17 21 - - - - - - - 20.0 1020.3 -
22/03:00am SE 17 23 - - - - - - - 19.8 1020.3 -
22/02:30am SE 16 20 - - - - - - - 19.9 1020.2 -
22/02:00am SE 18 22 - - - - - - - 19.8 1020.1 -
22/01:30am SE 17 23 - - - - - - - 19.9 1019.9 -
22/01:00am SE 17 21 - - - - - - - 19.9 1020.2 -
22/12:44am SSE 16 26 - - - - - - - 19.8 1020.3 -
22/12:30am SE 15 19 - - - - - - - 19.9 1020.5 -
22/12:00am SSE 15 19 - - - - - - - 20.0 1020.7 -
 
Date/Time
EST
Wind Sea
Height
m
Swell Vis
km
Cloud Weather Temp
°C
Press
MSL
hPa
Rain since
9am
mm
Dir  Spd
kts
Gust
kts
Height
m
Period
s
Dir
21/11:30pm SE 14 18 - - - - - - - 19.9 1020.7 -
21/11:00pm SSE 16 20 - - - - - - - 20.0 1020.7 -
21/10:30pm SSE 15 19 - - - - - - - 20.0 1020.9 -
21/10:00pm SSE 16 19 - - - - - - - 20.0 1020.8 -
21/09:30pm SSE 16 20 - - - - - - - 19.9 1020.6 -
21/09:00pm SSE 16 19 - - - - - - - 19.9 1020.5 -
21/08:30pm SSE 16 20 - - - - - - - 19.8 1020.1 -
21/08:00pm SSE 16 18 - - - - - - - 19.9 1020.0 -
21/07:30pm SSE 17 22 - - - - - - - 20.1 1019.7 -
21/07:00pm SSE 16 20 - - - - - - - 20.1 1019.5 -
21/06:30pm S 16 19 - - - - - - - 20.2 1019.1 -
21/06:00pm S 15 18 - - - - - - - 20.4 1018.7 -
21/05:30pm S 15 18 - - - - - - - 20.0 1018.4 -
21/05:00pm S 16 19 - - - - - - - 20.0 1018.0 -
21/04:30pm SSW 15 18 - - - - - - - 19.9 1017.7 -
21/04:00pm S 15 17 - - - - - - - 20.2 1017.5 -
21/03:30pm S 14 19 - - - - - - - 20.5 1017.2 -
21/03:00pm SSW 14 18 - - - - - - - 21.4 1017.2 -
21/02:30pm SSW 15 18 - - - - - - - 21.4 1017.2 -
21/02:00pm SSW 15 23 - - - - - - - 21.8 1017.1 -
21/01:30pm SSW 16 19 - - - - - - - 22.2 1017.2 -
21/01:00pm SW 16 20 - - - - - - - 22.6 1017.4 -
21/12:30pm SSW 18 21 - - - - - - - 22.5 1017.7 -
21/12:00pm SSW 17 21 - - - - - - - 23.0 1018.3 -
21/11:30am SSW 19 23 - - - - - - - 22.7 1018.6 -
21/11:00am SSW 19 23 - - - - - - - 22.8 1018.9 -
21/10:30am SSW 19 21 - - - - - - - 23.0 1019.2 -
21/10:00am SSW 18 22 - - - - - - - 22.7 1019.4 -
21/09:30am SSW 17 20 - - - - - - - 23.0 1019.4 -
21/09:00am W 15 21 - - - - - - - 22.1 1019.4 -
21/08:30am W 13 16 - - - - - - - 23.0 1019.3 -
21/08:00am SW 14 17 - - - - - - - 22.4 1019.2 -
21/07:30am WSW 15 19 - - - - - - - 21.8 1018.9 -
21/07:00am W 15 19 - - - - - - - 21.2 1018.7 -
21/06:30am W 14 17 - - - - - - - 20.5 1018.4 -
21/06:00am W 13 16 - - - - - - - 20.2 1018.0 -
21/05:30am W 14 18 - - - - - - - 20.3 1017.7 -
21/05:00am W 15 18 - - - - - - - 20.3 1017.4 -
21/04:30am WNW 14 17 - - - - - - - 20.1 1017.0 -
21/04:00am WNW 14 19 - - - - - - - 20.0 1016.8 -
21/03:30am WNW 14 17 - - - - - - - 19.9 1016.8 -
21/03:00am WNW 14 17 - - - - - - - 20.0 1016.7 -
21/02:30am WNW 13 16 - - - - - - - 20.0 1016.7 -
21/02:00am WNW 13 15 - - - - - - - 19.9 1017.0 -
21/01:30am W 13 16 - - - - - - - 19.8 1017.3 -
21/01:00am WNW 13 17 - - - - - - - 19.8 1017.6 -
21/12:30am WNW 12 15 - - - - - - - 19.8 1017.8 -
21/12:00am WNW 13 16 - - - - - - - 19.9 1018.0 -
 
Date/Time
EST
Wind Sea
Height
m
Swell Vis
km
Cloud Weather Temp
°C
Press
MSL
hPa
Rain since
9am
mm
Dir  Spd
kts
Gust
kts
Height
m
Period
s
Dir
20/11:30pm W 13 17 - - - - - - - 19.9 1018.2 -
20/11:00pm W 11 16 - - - - - - - 19.8 1018.5 -
20/10:30pm WNW 13 17 - - - - - - - 19.9 1018.6 -
20/10:00pm WNW 11 16 - - - - - - - 19.8 1018.7 -

Other formats

Comma delimited format used in spreadsheet applications
http://www.bom.gov.au/fwo/IDQ60701/IDQ60701.94394.axf

JavaScript Object Notation format (JSON) in row-major order
http://www.bom.gov.au/fwo/IDQ60701/IDQ60701.94394.json

Data quality

Most of these data are generated automatically and are frequently updated. Quality checks on data are not normally performed. It is possible for incorrect values to appear. Refer to information at About Latest Weather Observations and please check the disclaimer before using these data.